sensor_id;sensor_type;location;lat;lon;timestamp;P1;durP1;ratioP1;P2;durP2;ratioP2
10248;SDS011;5169;50.560;9.714;2023-07-22T00:02:24;64.87;;;58.67;;
10248;SDS011;5169;50.560;9.714;2023-07-22T00:04:50;69.67;;;63.00;;
10248;SDS011;5169;50.560;9.714;2023-07-22T00:07:20;66.30;;;60.10;;
10248;SDS011;5169;50.560;9.714;2023-07-22T00:09:46;68.13;;;61.43;;
10248;SDS011;5169;50.560;9.714;2023-07-22T00:12:11;61.97;;;56.07;;
10248;SDS011;5169;50.560;9.714;2023-07-22T00:14:38;55.03;;;50.23;;
10248;SDS011;5169;50.560;9.714;2023-07-22T00:17:05;58.83;;;53.23;;
10248;SDS011;5169;50.560;9.714;2023-07-22T00:19:30;68.23;;;61.50;;
10248;SDS011;5169;50.560;9.714;2023-07-22T00:21:56;67.17;;;60.57;;
10248;SDS011;5169;50.560;9.714;2023-07-22T00:24:22;63.23;;;57.00;;
10248;SDS011;5169;50.560;9.714;2023-07-22T00:26:48;68.83;;;61.93;;
10248;SDS011;5169;50.560;9.714;2023-07-22T00:29:15;62.77;;;56.80;;
10248;SDS011;5169;50.560;9.714;2023-07-22T00:31:41;62.50;;;56.67;;
10248;SDS011;5169;50.560;9.714;2023-07-22T00:34:09;64.60;;;58.60;;
10248;SDS011;5169;50.560;9.714;2023-07-22T00:36:35;69.33;;;62.67;;
10248;SDS011;5169;50.560;9.714;2023-07-22T00:39:05;68.40;;;61.90;;
10248;SDS011;5169;50.560;9.714;2023-07-22T00:41:31;61.47;;;55.67;;
10248;SDS011;5169;50.560;9.714;2023-07-22T00:43:59;63.93;;;57.77;;
10248;SDS011;5169;50.560;9.714;2023-07-22T00:46:27;70.83;;;64.00;;
10248;SDS011;5169;50.560;9.714;2023-07-22T00:48:55;62.00;;;56.40;;
10248;SDS011;5169;50.560;9.714;2023-07-22T00:51:21;63.27;;;57.27;;
10248;SDS011;5169;50.560;9.714;2023-07-22T00:53:47;66.07;;;59.87;;
10248;SDS011;5169;50.560;9.714;2023-07-22T00:56:13;62.57;;;56.67;;
10248;SDS011;5169;50.560;9.714;2023-07-22T00:58:38;64.77;;;58.57;;
10248;SDS011;5169;50.560;9.714;2023-07-22T01:01:04;61.07;;;55.57;;
10248;SDS011;5169;50.560;9.714;2023-07-22T01:03:30;58.40;;;52.93;;
10248;SDS011;5169;50.560;9.714;2023-07-22T01:05:56;58.50;;;53.20;;
10248;SDS011;5169;50.560;9.714;2023-07-22T01:08:23;58.80;;;53.20;;
10248;SDS011;5169;50.560;9.714;2023-07-22T01:10:49;54.97;;;49.80;;
10248;SDS011;5169;50.560;9.714;2023-07-22T01:13:14;56.37;;;51.17;;
10248;SDS011;5169;50.560;9.714;2023-07-22T01:15:40;64.27;;;58.07;;
10248;SDS011;5169;50.560;9.714;2023-07-22T01:18:06;63.47;;;57.30;;
10248;SDS011;5169;50.560;9.714;2023-07-22T01:20:32;64.77;;;58.17;;
10248;SDS011;5169;50.560;9.714;2023-07-22T01:22:58;64.00;;;57.40;;
10248;SDS011;5169;50.560;9.714;2023-07-22T01:25:26;63.07;;;56.67;;
10248;SDS011;5169;50.560;9.714;2023-07-22T01:27:53;58.73;;;52.83;;
10248;SDS011;5169;50.560;9.714;2023-07-22T01:30:18;58.07;;;52.37;;
10248;SDS011;5169;50.560;9.714;2023-07-22T01:32:45;58.83;;;53.03;;
10248;SDS011;5169;50.560;9.714;2023-07-22T01:35:11;54.73;;;49.50;;
10248;SDS011;5169;50.560;9.714;2023-07-22T01:37:37;59.17;;;53.23;;
10248;SDS011;5169;50.560;9.714;2023-07-22T01:40:02;55.17;;;49.80;;
10248;SDS011;5169;50.560;9.714;2023-07-22T01:42:37;56.30;;;50.70;;
10248;SDS011;5169;50.560;9.714;2023-07-22T01:45:03;56.67;;;51.07;;
10248;SDS011;5169;50.560;9.714;2023-07-22T01:47:36;63.37;;;56.97;;
10248;SDS011;5169;50.560;9.714;2023-07-22T01:50:03;57.23;;;51.43;;
10248;SDS011;5169;50.560;9.714;2023-07-22T01:52:31;58.20;;;52.50;;
10248;SDS011;5169;50.560;9.714;2023-07-22T01:54:57;54.93;;;49.73;;
10248;SDS011;5169;50.560;9.714;2023-07-22T01:57:24;56.37;;;50.87;;
10248;SDS011;5169;50.560;9.714;2023-07-22T01:59:50;62.30;;;56.07;;
10248;SDS011;5169;50.560;9.714;2023-07-22T02:02:16;68.50;;;61.30;;
10248;SDS011;5169;50.560;9.714;2023-07-22T02:04:41;64.37;;;57.77;;
10248;SDS011;5169;50.560;9.714;2023-07-22T02:07:07;65.20;;;58.40;;
10248;SDS011;5169;50.560;9.714;2023-07-22T02:09:32;61.43;;;55.17;;
10248;SDS011;5169;50.560;9.714;2023-07-22T02:11:58;60.70;;;54.30;;
10248;SDS011;5169;50.560;9.714;2023-07-22T02:14:24;61.90;;;55.33;;
10248;SDS011;5169;50.560;9.714;2023-07-22T02:16:49;64.30;;;57.20;;
10248;SDS011;5169;50.560;9.714;2023-07-22T02:19:15;69.87;;;59.73;;
10248;SDS011;5169;50.560;9.714;2023-07-22T02:21:41;63.67;;;56.57;;
10248;SDS011;5169;50.560;9.714;2023-07-22T02:24:07;64.17;;;55.93;;
10248;SDS011;5169;50.560;9.714;2023-07-22T02:26:33;69.30;;;61.60;;
10248;SDS011;5169;50.560;9.714;2023-07-22T02:28:59;66.13;;;58.90;;
10248;SDS011;5169;50.560;9.714;2023-07-22T02:31:24;69.20;;;60.40;;
10248;SDS011;5169;50.560;9.714;2023-07-22T02:33:50;67.90;;;60.13;;
10248;SDS011;5169;50.560;9.714;2023-07-22T02:36:16;71.93;;;62.93;;
10248;SDS011;5169;50.560;9.714;2023-07-22T02:38:44;64.43;;;56.80;;
10248;SDS011;5169;50.560;9.714;2023-07-22T02:41:10;63.63;;;56.70;;
10248;SDS011;5169;50.560;9.714;2023-07-22T02:43:36;66.27;;;58.93;;
10248;SDS011;5169;50.560;9.714;2023-07-22T02:46:02;62.13;;;55.43;;
10248;SDS011;5169;50.560;9.714;2023-07-22T02:48:29;61.47;;;54.90;;
10248;SDS011;5169;50.560;9.714;2023-07-22T02:50:55;62.30;;;55.80;;
10248;SDS011;5169;50.560;9.714;2023-07-22T02:53:23;63.37;;;56.47;;
10248;SDS011;5169;50.560;9.714;2023-07-22T02:55:48;65.33;;;58.17;;
10248;SDS011;5169;50.560;9.714;2023-07-22T02:58:14;64.57;;;56.53;;
10248;SDS011;5169;50.560;9.714;2023-07-22T03:00:40;75.93;;;62.07;;
10248;SDS011;5169;50.560;9.714;2023-07-22T03:03:05;65.67;;;58.17;;
10248;SDS011;5169;50.560;9.714;2023-07-22T03:05:31;64.37;;;56.30;;
10248;SDS011;5169;50.560;9.714;2023-07-22T03:07:59;66.37;;;58.63;;
10248;SDS011;5169;50.560;9.714;2023-07-22T03:10:25;69.97;;;60.67;;
10248;SDS011;5169;50.560;9.714;2023-07-22T03:12:54;63.20;;;56.40;;
10248;SDS011;5169;50.560;9.714;2023-07-22T03:15:24;72.63;;;62.83;;
10248;SDS011;5169;50.560;9.714;2023-07-22T03:17:53;74.30;;;59.90;;
10248;SDS011;5169;50.560;9.714;2023-07-22T03:20:20;77.97;;;62.87;;
10248;SDS011;5169;50.560;9.714;2023-07-22T03:22:47;70.23;;;57.53;;
10248;SDS011;5169;50.560;9.714;2023-07-22T03:25:14;70.77;;;58.40;;
10248;SDS011;5169;50.560;9.714;2023-07-22T03:27:42;64.00;;;55.67;;
10248;SDS011;5169;50.560;9.714;2023-07-22T03:30:09;62.50;;;54.93;;
10248;SDS011;5169;50.560;9.714;2023-07-22T03:32:40;72.13;;;60.53;;
10248;SDS011;5169;50.560;9.714;2023-07-22T03:35:20;66.90;;;57.97;;
10248;SDS011;5169;50.560;9.714;2023-07-22T03:37:46;68.60;;;58.10;;
10248;SDS011;5169;50.560;9.714;2023-07-22T03:40:14;62.17;;;55.20;;
10248;SDS011;5169;50.560;9.714;2023-07-22T03:42:50;66.47;;;57.87;;
10248;SDS011;5169;50.560;9.714;2023-07-22T03:45:19;70.60;;;60.20;;
10248;SDS011;5169;50.560;9.714;2023-07-22T03:47:45;67.07;;;58.30;;
10248;SDS011;5169;50.560;9.714;2023-07-22T03:50:12;67.67;;;58.20;;
10248;SDS011;5169;50.560;9.714;2023-07-22T03:52:38;58.37;;;52.23;;
10248;SDS011;5169;50.560;9.714;2023-07-22T03:55:03;66.77;;;57.50;;
10248;SDS011;5169;50.560;9.714;2023-07-22T03:57:32;74.30;;;61.50;;
10248;SDS011;5169;50.560;9.714;2023-07-22T03:59:59;71.47;;;59.17;;
10248;SDS011;5169;50.560;9.714;2023-07-22T04:02:25;66.27;;;57.03;;
10248;SDS011;5169;50.560;9.714;2023-07-22T04:04:54;67.97;;;58.63;;
10248;SDS011;5169;50.560;9.714;2023-07-22T04:07:20;57.57;;;51.37;;
10248;SDS011;5169;50.560;9.714;2023-07-22T04:09:49;78.53;;;62.57;;
10248;SDS011;5169;50.560;9.714;2023-07-22T04:12:14;79.87;;;64.60;;
10248;SDS011;5169;50.560;9.714;2023-07-22T04:14:40;78.20;;;63.40;;
10248;SDS011;5169;50.560;9.714;2023-07-22T04:17:06;63.50;;;54.87;;
10248;SDS011;5169;50.560;9.714;2023-07-22T04:19:32;60.67;;;54.07;;
10248;SDS011;5169;50.560;9.714;2023-07-22T04:21:58;65.47;;;58.23;;
10248;SDS011;5169;50.560;9.714;2023-07-22T04:24:25;68.70;;;58.97;;
10248;SDS011;5169;50.560;9.714;2023-07-22T04:26:53;64.73;;;57.73;;
10248;SDS011;5169;50.560;9.714;2023-07-22T04:29:20;61.70;;;55.00;;
10248;SDS011;5169;50.560;9.714;2023-07-22T04:31:46;60.20;;;53.60;;
10248;SDS011;5169;50.560;9.714;2023-07-22T04:34:14;64.27;;;56.63;;
10248;SDS011;5169;50.560;9.714;2023-07-22T04:36:39;65.33;;;57.63;;
10248;SDS011;5169;50.560;9.714;2023-07-22T04:39:05;73.33;;;61.53;;
10248;SDS011;5169;50.560;9.714;2023-07-22T04:41:31;64.90;;;56.77;;
10248;SDS011;5169;50.560;9.714;2023-07-22T04:43:57;70.97;;;59.80;;
10248;SDS011;5169;50.560;9.714;2023-07-22T04:46:23;70.27;;;59.90;;
10248;SDS011;5169;50.560;9.714;2023-07-22T04:48:54;67.50;;;58.23;;
10248;SDS011;5169;50.560;9.714;2023-07-22T04:51:20;72.90;;;61.03;;
10248;SDS011;5169;50.560;9.714;2023-07-22T04:53:45;69.13;;;59.97;;
10248;SDS011;5169;50.560;9.714;2023-07-22T04:56:13;64.43;;;57.43;;
10248;SDS011;5169;50.560;9.714;2023-07-22T04:58:39;69.67;;;61.00;;
10248;SDS011;5169;50.560;9.714;2023-07-22T05:01:04;80.23;;;64.17;;
10248;SDS011;5169;50.560;9.714;2023-07-22T05:03:33;65.13;;;58.13;;
10248;SDS011;5169;50.560;9.714;2023-07-22T05:05:59;71.10;;;60.60;;
10248;SDS011;5169;50.560;9.714;2023-07-22T05:08:25;67.20;;;59.83;;
10248;SDS011;5169;50.560;9.714;2023-07-22T05:10:55;60.97;;;54.73;;
10248;SDS011;5169;50.560;9.714;2023-07-22T05:13:20;62.07;;;55.77;;
10248;SDS011;5169;50.560;9.714;2023-07-22T05:15:48;59.87;;;53.47;;
10248;SDS011;5169;50.560;9.714;2023-07-22T05:18:14;71.60;;;63.47;;
10248;SDS011;5169;50.560;9.714;2023-07-22T05:20:39;67.97;;;60.67;;
10248;SDS011;5169;50.560;9.714;2023-07-22T05:26:11;66.83;;;59.73;;
10248;SDS011;5169;50.560;9.714;2023-07-22T05:28:38;70.57;;;62.87;;
10248;SDS011;5169;50.560;9.714;2023-07-22T05:31:06;63.83;;;57.27;;
10248;SDS011;5169;50.560;9.714;2023-07-22T05:33:32;65.07;;;58.47;;
10248;SDS011;5169;50.560;9.714;2023-07-22T05:35:57;76.60;;;68.40;;
10248;SDS011;5169;50.560;9.714;2023-07-22T05:38:26;71.80;;;64.20;;
10248;SDS011;5169;50.560;9.714;2023-07-22T05:40:52;70.90;;;63.80;;
10248;SDS011;5169;50.560;9.714;2023-07-22T05:43:18;68.03;;;61.20;;
10248;SDS011;5169;50.560;9.714;2023-07-22T05:45:43;72.83;;;65.83;;
10248;SDS011;5169;50.560;9.714;2023-07-22T05:48:11;71.80;;;65.00;;
10248;SDS011;5169;50.560;9.714;2023-07-22T05:50:37;68.03;;;62.33;;
10248;SDS011;5169;50.560;9.714;2023-07-22T05:53:02;67.17;;;61.80;;
10248;SDS011;5169;50.560;9.714;2023-07-22T05:55:28;63.43;;;58.57;;
10248;SDS011;5169;50.560;9.714;2023-07-22T05:57:53;60.13;;;55.47;;
10248;SDS011;5169;50.560;9.714;2023-07-22T06:00:19;54.93;;;51.13;;
10248;SDS011;5169;50.560;9.714;2023-07-22T06:02:45;52.47;;;48.97;;
10248;SDS011;5169;50.560;9.714;2023-07-22T06:05:10;47.33;;;44.07;;
10248;SDS011;5169;50.560;9.714;2023-07-22T06:07:39;44.83;;;41.97;;
10248;SDS011;5169;50.560;9.714;2023-07-22T06:10:04;57.57;;;53.67;;
10248;SDS011;5169;50.560;9.714;2023-07-22T06:12:31;54.93;;;51.03;;
10248;SDS011;5169;50.560;9.714;2023-07-22T06:14:56;64.93;;;60.40;;
10248;SDS011;5169;50.560;9.714;2023-07-22T06:17:22;61.83;;;57.43;;
10248;SDS011;5169;50.560;9.714;2023-07-22T06:19:48;53.17;;;49.67;;
10248;SDS011;5169;50.560;9.714;2023-07-22T06:22:14;60.63;;;56.60;;
10248;SDS011;5169;50.560;9.714;2023-07-22T06:24:42;64.70;;;60.40;;
10248;SDS011;5169;50.560;9.714;2023-07-22T06:27:12;67.40;;;62.80;;
10248;SDS011;5169;50.560;9.714;2023-07-22T06:29:40;66.13;;;61.60;;
10248;SDS011;5169;50.560;9.714;2023-07-22T06:32:05;61.87;;;57.57;;
10248;SDS011;5169;50.560;9.714;2023-07-22T06:34:31;66.57;;;61.97;;
10248;SDS011;5169;50.560;9.714;2023-07-22T06:36:57;60.50;;;56.40;;
10248;SDS011;5169;50.560;9.714;2023-07-22T06:39:22;61.80;;;57.43;;
10248;SDS011;5169;50.560;9.714;2023-07-22T06:41:48;58.70;;;54.60;;
10248;SDS011;5169;50.560;9.714;2023-07-22T06:44:13;62.33;;;58.00;;
10248;SDS011;5169;50.560;9.714;2023-07-22T06:46:39;60.97;;;56.57;;
10248;SDS011;5169;50.560;9.714;2023-07-22T06:49:05;60.87;;;56.57;;
10248;SDS011;5169;50.560;9.714;2023-07-22T06:51:31;60.33;;;56.23;;
10248;SDS011;5169;50.560;9.714;2023-07-22T06:53:57;55.27;;;51.47;;
10248;SDS011;5169;50.560;9.714;2023-07-22T06:56:22;60.27;;;56.07;;
10248;SDS011;5169;50.560;9.714;2023-07-22T06:58:48;65.20;;;60.50;;
10248;SDS011;5169;50.560;9.714;2023-07-22T07:01:14;64.17;;;59.37;;
10248;SDS011;5169;50.560;9.714;2023-07-22T07:03:39;65.60;;;60.73;;
10248;SDS011;5169;50.560;9.714;2023-07-22T07:06:05;66.87;;;61.87;;
10248;SDS011;5169;50.560;9.714;2023-07-22T07:08:31;70.57;;;65.40;;
10248;SDS011;5169;50.560;9.714;2023-07-22T07:10:58;70.13;;;64.70;;
10248;SDS011;5169;50.560;9.714;2023-07-22T07:13:28;82.60;;;76.30;;
10248;SDS011;5169;50.560;9.714;2023-07-22T07:15:56;75.67;;;69.90;;
10248;SDS011;5169;50.560;9.714;2023-07-22T07:18:49;84.10;;;77.60;;
10248;SDS011;5169;50.560;9.714;2023-07-22T07:21:20;77.70;;;71.83;;
10248;SDS011;5169;50.560;9.714;2023-07-22T07:23:49;75.93;;;70.23;;
10248;SDS011;5169;50.560;9.714;2023-07-22T07:26:16;74.97;;;69.17;;
10248;SDS011;5169;50.560;9.714;2023-07-22T07:28:42;67.47;;;62.43;;
10248;SDS011;5169;50.560;9.714;2023-07-22T07:31:08;66.40;;;61.53;;
10248;SDS011;5169;50.560;9.714;2023-07-22T07:33:33;79.13;;;72.80;;
10248;SDS011;5169;50.560;9.714;2023-07-22T07:36:00;70.00;;;64.90;;
10248;SDS011;5169;50.560;9.714;2023-07-22T07:38:26;70.13;;;65.10;;
10248;SDS011;5169;50.560;9.714;2023-07-22T07:40:57;80.30;;;74.20;;
10248;SDS011;5169;50.560;9.714;2023-07-22T07:43:24;81.30;;;75.20;;
10248;SDS011;5169;50.560;9.714;2023-07-22T07:45:51;65.13;;;60.43;;
10248;SDS011;5169;50.560;9.714;2023-07-22T07:48:37;66.43;;;61.73;;
10248;SDS011;5169;50.560;9.714;2023-07-22T07:51:05;68.73;;;63.73;;
10248;SDS011;5169;50.560;9.714;2023-07-22T07:53:32;74.07;;;68.87;;
10248;SDS011;5169;50.560;9.714;2023-07-22T07:55:58;84.17;;;78.27;;
10248;SDS011;5169;50.560;9.714;2023-07-22T07:58:23;76.77;;;71.00;;
10248;SDS011;5169;50.560;9.714;2023-07-22T08:00:51;68.00;;;63.30;;
10248;SDS011;5169;50.560;9.714;2023-07-22T08:03:17;60.63;;;56.53;;
10248;SDS011;5169;50.560;9.714;2023-07-22T08:05:42;64.10;;;59.60;;
10248;SDS011;5169;50.560;9.714;2023-07-22T08:08:08;64.83;;;60.50;;
10248;SDS011;5169;50.560;9.714;2023-07-22T08:10:33;62.00;;;57.73;;
10248;SDS011;5169;50.560;9.714;2023-07-22T08:12:59;68.33;;;63.63;;
10248;SDS011;5169;50.560;9.714;2023-07-22T08:15:25;64.77;;;60.47;;
10248;SDS011;5169;50.560;9.714;2023-07-22T08:17:53;68.07;;;63.57;;
10248;SDS011;5169;50.560;9.714;2023-07-22T08:20:18;60.50;;;56.67;;
10248;SDS011;5169;50.560;9.714;2023-07-22T08:22:44;63.43;;;59.23;;
10248;SDS011;5169;50.560;9.714;2023-07-22T08:25:09;78.20;;;72.87;;
10248;SDS011;5169;50.560;9.714;2023-07-22T08:27:35;71.53;;;66.83;;
10248;SDS011;5169;50.560;9.714;2023-07-22T08:30:00;78.20;;;73.00;;
10248;SDS011;5169;50.560;9.714;2023-07-22T08:32:28;61.73;;;57.53;;
10248;SDS011;5169;50.560;9.714;2023-07-22T08:34:54;52.77;;;49.30;;
10248;SDS011;5169;50.560;9.714;2023-07-22T08:37:19;55.47;;;52.03;;
10248;SDS011;5169;50.560;9.714;2023-07-22T08:39:45;55.07;;;51.53;;
10248;SDS011;5169;50.560;9.714;2023-07-22T08:42:11;66.83;;;62.73;;
10248;SDS011;5169;50.560;9.714;2023-07-22T08:44:38;61.77;;;57.73;;
10248;SDS011;5169;50.560;9.714;2023-07-22T08:47:09;58.80;;;55.23;;
10248;SDS011;5169;50.560;9.714;2023-07-22T08:49:43;65.77;;;61.67;;
10248;SDS011;5169;50.560;9.714;2023-07-22T08:52:15;52.20;;;48.87;;
10248;SDS011;5169;50.560;9.714;2023-07-22T08:54:42;56.23;;;52.90;;
10248;SDS011;5169;50.560;9.714;2023-07-22T08:57:09;60.70;;;57.10;;
10248;SDS011;5169;50.560;9.714;2023-07-22T08:59:36;65.07;;;61.03;;
10248;SDS011;5169;50.560;9.714;2023-07-22T09:02:03;47.23;;;44.40;;
10248;SDS011;5169;50.560;9.714;2023-07-22T09:04:31;55.50;;;52.07;;
10248;SDS011;5169;50.560;9.714;2023-07-22T09:06:57;61.53;;;57.73;;
10248;SDS011;5169;50.560;9.714;2023-07-22T09:09:24;64.43;;;60.33;;
10248;SDS011;5169;50.560;9.714;2023-07-22T09:11:52;58.33;;;54.83;;
10248;SDS011;5169;50.560;9.714;2023-07-22T09:14:22;47.87;;;45.07;;
10248;SDS011;5169;50.560;9.714;2023-07-22T09:16:52;38.57;;;36.23;;
10248;SDS011;5169;50.560;9.714;2023-07-22T09:19:18;28.00;;;26.13;;
10248;SDS011;5169;50.560;9.714;2023-07-22T09:21:44;23.20;;;21.73;;
10248;SDS011;5169;50.560;9.714;2023-07-22T09:24:19;19.37;;;18.03;;
10248;SDS011;5169;50.560;9.714;2023-07-22T09:26:49;21.87;;;20.53;;
10248;SDS011;5169;50.560;9.714;2023-07-22T09:29:16;29.57;;;27.83;;
10248;SDS011;5169;50.560;9.714;2023-07-22T09:31:51;22.73;;;21.00;;
10248;SDS011;5169;50.560;9.714;2023-07-22T09:34:18;28.33;;;26.53;;
10248;SDS011;5169;50.560;9.714;2023-07-22T09:36:54;27.40;;;25.73;;
10248;SDS011;5169;50.560;9.714;2023-07-22T09:39:21;36.43;;;34.37;;
10248;SDS011;5169;50.560;9.714;2023-07-22T09:41:50;39.03;;;36.80;;
10248;SDS011;5169;50.560;9.714;2023-07-22T09:44:20;33.30;;;31.40;;
10248;SDS011;5169;50.560;9.714;2023-07-22T09:46:47;24.97;;;23.00;;
10248;SDS011;5169;50.560;9.714;2023-07-22T09:49:14;23.67;;;22.27;;
10248;SDS011;5169;50.560;9.714;2023-07-22T09:51:42;24.43;;;22.87;;
10248;SDS011;5169;50.560;9.714;2023-07-22T09:54:08;19.53;;;18.30;;
10248;SDS011;5169;50.560;9.714;2023-07-22T09:56:43;24.77;;;23.27;;
10248;SDS011;5169;50.560;9.714;2023-07-22T09:59:13;18.47;;;17.23;;
10248;SDS011;5169;50.560;9.714;2023-07-22T10:01:40;19.63;;;18.43;;
10248;SDS011;5169;50.560;9.714;2023-07-22T10:04:07;23.57;;;22.20;;
10248;SDS011;5169;50.560;9.714;2023-07-22T10:06:35;18.37;;;17.03;;
10248;SDS011;5169;50.560;9.714;2023-07-22T10:09:05;18.27;;;16.90;;
10248;SDS011;5169;50.560;9.714;2023-07-22T10:11:35;23.13;;;21.67;;
10248;SDS011;5169;50.560;9.714;2023-07-22T10:14:04;18.07;;;16.77;;
10248;SDS011;5169;50.560;9.714;2023-07-22T10:16:31;14.80;;;13.83;;
10248;SDS011;5169;50.560;9.714;2023-07-22T10:18:57;22.00;;;20.60;;
10248;SDS011;5169;50.560;9.714;2023-07-22T10:21:24;17.30;;;16.20;;
10248;SDS011;5169;50.560;9.714;2023-07-22T10:23:53;17.13;;;16.00;;
10248;SDS011;5169;50.560;9.714;2023-07-22T10:26:19;19.10;;;17.73;;
10248;SDS011;5169;50.560;9.714;2023-07-22T10:28:47;20.90;;;19.47;;
10248;SDS011;5169;50.560;9.714;2023-07-22T10:31:13;15.20;;;14.20;;
10248;SDS011;5169;50.560;9.714;2023-07-22T10:33:46;27.37;;;25.73;;
10248;SDS011;5169;50.560;9.714;2023-07-22T10:36:15;16.10;;;14.93;;
10248;SDS011;5169;50.560;9.714;2023-07-22T10:38:42;16.97;;;15.97;;
10248;SDS011;5169;50.560;9.714;2023-07-22T10:41:15;27.37;;;25.67;;
10248;SDS011;5169;50.560;9.714;2023-07-22T10:43:53;27.10;;;25.37;;
10248;SDS011;5169;50.560;9.714;2023-07-22T10:46:30;19.43;;;18.20;;
10248;SDS011;5169;50.560;9.714;2023-07-22T10:49:13;19.97;;;18.43;;
10248;SDS011;5169;50.560;9.714;2023-07-22T10:51:40;25.27;;;23.50;;
10248;SDS011;5169;50.560;9.714;2023-07-22T10:54:10;19.23;;;18.03;;
10248;SDS011;5169;50.560;9.714;2023-07-22T10:56:43;19.43;;;18.17;;
10248;SDS011;5169;50.560;9.714;2023-07-22T10:59:09;16.63;;;15.57;;
10248;SDS011;5169;50.560;9.714;2023-07-22T11:01:39;16.10;;;14.53;;
10248;SDS011;5169;50.560;9.714;2023-07-22T11:11:54;22.33;;;21.00;;
10248;SDS011;5169;50.560;9.714;2023-07-22T11:14:31;21.77;;;20.33;;
10248;SDS011;5169;50.560;9.714;2023-07-22T11:16:59;11.77;;;10.73;;
10248;SDS011;5169;50.560;9.714;2023-07-22T11:19:26;17.67;;;16.43;;
10248;SDS011;5169;50.560;9.714;2023-07-22T11:21:54;23.13;;;21.60;;
10248;SDS011;5169;50.560;9.714;2023-07-22T11:24:20;31.50;;;29.73;;
10248;SDS011;5169;50.560;9.714;2023-07-22T11:26:50;26.53;;;25.07;;
10248;SDS011;5169;50.560;9.714;2023-07-22T11:29:17;21.03;;;19.60;;
10248;SDS011;5169;50.560;9.714;2023-07-22T11:31:47;21.50;;;20.20;;
10248;SDS011;5169;50.560;9.714;2023-07-22T11:34:15;31.57;;;29.70;;
10248;SDS011;5169;50.560;9.714;2023-07-22T11:36:43;26.93;;;25.30;;
10248;SDS011;5169;50.560;9.714;2023-07-22T11:39:10;35.60;;;33.43;;
10248;SDS011;5169;50.560;9.714;2023-07-22T11:41:37;37.03;;;34.83;;
10248;SDS011;5169;50.560;9.714;2023-07-22T11:44:04;31.90;;;30.10;;
10248;SDS011;5169;50.560;9.714;2023-07-22T11:46:34;25.00;;;23.50;;
10248;SDS011;5169;50.560;9.714;2023-07-22T11:49:00;33.97;;;31.93;;
10248;SDS011;5169;50.560;9.714;2023-07-22T11:51:27;31.20;;;29.10;;
10248;SDS011;5169;50.560;9.714;2023-07-22T11:53:53;28.30;;;26.70;;
10248;SDS011;5169;50.560;9.714;2023-07-22T11:56:25;36.53;;;34.23;;
10248;SDS011;5169;50.560;9.714;2023-07-22T11:58:55;31.50;;;29.57;;
10248;SDS011;5169;50.560;9.714;2023-07-22T12:01:22;35.63;;;33.53;;
10248;SDS011;5169;50.560;9.714;2023-07-22T12:03:48;31.97;;;30.07;;
10248;SDS011;5169;50.560;9.714;2023-07-22T12:06:19;34.47;;;32.50;;
10248;SDS011;5169;50.560;9.714;2023-07-22T12:08:48;30.40;;;28.60;;
10248;SDS011;5169;50.560;9.714;2023-07-22T12:11:20;27.17;;;25.43;;
10248;SDS011;5169;50.560;9.714;2023-07-22T12:13:47;30.70;;;28.93;;
10248;SDS011;5169;50.560;9.714;2023-07-22T12:16:20;34.70;;;32.53;;
10248;SDS011;5169;50.560;9.714;2023-07-22T12:18:49;25.10;;;23.57;;
10248;SDS011;5169;50.560;9.714;2023-07-22T12:21:14;28.73;;;27.07;;
10248;SDS011;5169;50.560;9.714;2023-07-22T12:23:40;24.03;;;22.40;;
10248;SDS011;5169;50.560;9.714;2023-07-22T12:26:07;21.13;;;19.70;;
10248;SDS011;5169;50.560;9.714;2023-07-22T12:28:33;27.60;;;25.80;;
10248;SDS011;5169;50.560;9.714;2023-07-22T12:30:59;35.43;;;33.27;;
10248;SDS011;5169;50.560;9.714;2023-07-22T12:33:27;35.80;;;33.53;;
10248;SDS011;5169;50.560;9.714;2023-07-22T12:35:53;33.57;;;31.50;;
10248;SDS011;5169;50.560;9.714;2023-07-22T12:38:19;33.17;;;31.20;;
10248;SDS011;5169;50.560;9.714;2023-07-22T12:40:45;34.23;;;32.13;;
10248;SDS011;5169;50.560;9.714;2023-07-22T12:43:13;47.67;;;44.40;;
10248;SDS011;5169;50.560;9.714;2023-07-22T12:45:38;37.70;;;35.53;;
10248;SDS011;5169;50.560;9.714;2023-07-22T12:48:04;37.23;;;35.10;;
10248;SDS011;5169;50.560;9.714;2023-07-22T12:50:30;26.50;;;25.03;;
10248;SDS011;5169;50.560;9.714;2023-07-22T12:52:59;30.70;;;28.87;;
10248;SDS011;5169;50.560;9.714;2023-07-22T12:55:24;41.03;;;38.60;;
10248;SDS011;5169;50.560;9.714;2023-07-22T12:57:53;24.20;;;22.73;;
10248;SDS011;5169;50.560;9.714;2023-07-22T13:00:19;29.17;;;27.43;;
10248;SDS011;5169;50.560;9.714;2023-07-22T13:02:44;31.77;;;29.90;;
10248;SDS011;5169;50.560;9.714;2023-07-22T13:05:10;23.53;;;22.00;;
10248;SDS011;5169;50.560;9.714;2023-07-22T13:07:35;25.23;;;23.60;;
10248;SDS011;5169;50.560;9.714;2023-07-22T13:10:03;24.30;;;22.87;;
10248;SDS011;5169;50.560;9.714;2023-07-22T13:12:33;25.17;;;23.50;;
10248;SDS011;5169;50.560;9.714;2023-07-22T13:14:59;21.27;;;19.90;;
10248;SDS011;5169;50.560;9.714;2023-07-22T13:17:27;21.93;;;20.67;;
10248;SDS011;5169;50.560;9.714;2023-07-22T13:19:53;29.10;;;26.97;;
10248;SDS011;5169;50.560;9.714;2023-07-22T13:22:18;33.23;;;31.30;;
10248;SDS011;5169;50.560;9.714;2023-07-22T13:24:46;27.33;;;25.73;;
10248;SDS011;5169;50.560;9.714;2023-07-22T13:27:12;27.33;;;25.70;;
10248;SDS011;5169;50.560;9.714;2023-07-22T13:29:40;25.80;;;24.27;;
10248;SDS011;5169;50.560;9.714;2023-07-22T13:32:05;19.57;;;18.27;;
10248;SDS011;5169;50.560;9.714;2023-07-22T13:34:31;27.90;;;26.33;;
10248;SDS011;5169;50.560;9.714;2023-07-22T13:37:00;25.83;;;24.07;;
10248;SDS011;5169;50.560;9.714;2023-07-22T13:39:27;31.73;;;29.80;;
10248;SDS011;5169;50.560;9.714;2023-07-22T13:41:53;33.50;;;31.27;;
10248;SDS011;5169;50.560;9.714;2023-07-22T13:44:21;32.30;;;30.20;;
10248;SDS011;5169;50.560;9.714;2023-07-22T13:46:46;32.37;;;30.33;;
10248;SDS011;5169;50.560;9.714;2023-07-22T13:49:14;29.07;;;27.03;;
10248;SDS011;5169;50.560;9.714;2023-07-22T13:51:40;34.30;;;32.30;;
10248;SDS011;5169;50.560;9.714;2023-07-22T13:54:06;23.77;;;22.30;;
10248;SDS011;5169;50.560;9.714;2023-07-22T13:56:32;24.23;;;22.47;;
10248;SDS011;5169;50.560;9.714;2023-07-22T13:58:57;19.40;;;18.10;;
10248;SDS011;5169;50.560;9.714;2023-07-22T14:01:25;25.73;;;24.17;;
10248;SDS011;5169;50.560;9.714;2023-07-22T14:03:51;20.17;;;18.80;;
10248;SDS011;5169;50.560;9.714;2023-07-22T14:06:17;21.00;;;19.73;;
10248;SDS011;5169;50.560;9.714;2023-07-22T14:08:42;19.40;;;18.13;;
10248;SDS011;5169;50.560;9.714;2023-07-22T14:11:08;20.90;;;19.53;;
10248;SDS011;5169;50.560;9.714;2023-07-22T14:13:33;17.17;;;15.97;;
10248;SDS011;5169;50.560;9.714;2023-07-22T14:15:59;21.27;;;19.93;;
10248;SDS011;5169;50.560;9.714;2023-07-22T14:18:26;20.80;;;19.53;;
10248;SDS011;5169;50.560;9.714;2023-07-22T14:20:51;16.47;;;15.27;;
10248;SDS011;5169;50.560;9.714;2023-07-22T14:23:17;14.80;;;13.67;;
10248;SDS011;5169;50.560;9.714;2023-07-22T14:25:42;16.13;;;15.03;;
10248;SDS011;5169;50.560;9.714;2023-07-22T14:28:08;18.03;;;16.90;;
10248;SDS011;5169;50.560;9.714;2023-07-22T14:30:36;22.03;;;20.77;;
10248;SDS011;5169;50.560;9.714;2023-07-22T14:33:01;15.37;;;14.00;;
10248;SDS011;5169;50.560;9.714;2023-07-22T14:35:27;19.07;;;17.80;;
10248;SDS011;5169;50.560;9.714;2023-07-22T14:37:53;29.57;;;27.83;;
10248;SDS011;5169;50.560;9.714;2023-07-22T14:40:18;29.90;;;28.03;;
10248;SDS011;5169;50.560;9.714;2023-07-22T14:42:46;26.43;;;24.80;;
10248;SDS011;5169;50.560;9.714;2023-07-22T14:45:14;17.17;;;15.93;;